Estestar — 3ECR8 — position and weather

sailwx.info

Track history (hours):
 
Tides and Currents Weather Stations Pressure Air Temp Water Temp Dewpoint Dewpoint Depression Visibility Wind Speed Wind Dir Waves Ship Positions

Estestar

Last reported at 2015-May-25 10:10 UTC. Time now 2015-May-28 08:08 UTC.
Position N 46°36' E 031°39'.

Length 133 m; draft 7.5 m.

Type: Cargo ship. MMSI: 371448000.

Date/timePositionNaut miles runAvg speedWind from/ knotsBaromVisibWave heightAir tempDewpointWater temp
2015-May-25 10:10N 46°36' E 031°39'6 7.8
2015-May-25 09:21N 46°36' E 031°48'5 6.4
2015-May-25 08:33N 46°34' E 031°55'7 6.9
2015-May-25 07:33N 46°32' E 032°05'9 7.8
2015-May-25 06:21N 46°33' E 032°18'  
2015-May-22 12:29N 46°33' E 032°16'9 9.5
2015-May-22 11:33N 46°32' E 032°03'10 9.8
2015-May-22 10:33N 46°35' E 031°50'12 9.3
2015-May-22 09:17N 46°35' E 031°32'30 6.2
2015-May-22 04:29N 46°17' E 030°58'10 9.2
2015-May-22 03:22N 46°10' E 031°07'7 8.7
2015-May-22 02:31N 46°02' E 031°08'  
2015-May-18 17:06N 39°36' E 025°48'109 8.0
2015-May-18 03:30N 37°47' E 025°53'9 9.1
2015-May-18 02:33N 37°38' E 025°53'9 8.8
2015-May-18 01:33N 37°29' E 025°53'9 8.5
2015-May-18 00:33N 37°24' E 026°01'9 8.6
2015-May-17 23:33N 37°20' E 026°11'18 8.9
2015-May-17 21:33N 37°08' E 026°28'9 9.2
2015-May-17 20:33N 37°03' E 026°37'9 8.7
2015-May-17 19:33N 36°55' E 026°42'9 9.3
2015-May-17 18:33N 36°46' E 026°45'17 8.6
2015-May-17 16:33N 36°29' E 026°49'8 8.4
2015-May-17 15:33N 36°21' E 026°53'29 8.9
2015-May-17 12:21N 36°01' E 027°17'7 9.1
2015-May-17 11:33N 35°55' E 027°23'19 9.3
2015-May-17 09:33N 35°40' E 027°37'2 2.2
2015-May-17 08:33N 35°39' E 027°40'0 0.2
2015-May-17 07:33N 35°39' E 027°40'0 0.3
2015-May-17 06:33N 35°39' E 027°40'0 0.2
2015-May-17 05:32N 35°39' E 027°40'24 5.9
2015-May-17 01:31N 35°21' E 027°60'34 6.8
2015-May-16 20:33N 34°58' E 028°30'39 6.4
2015-May-16 14:28N 34°29' E 029°01'8 9.2
2015-May-16 13:32N 34°22' E 029°07'10 9.0
2015-May-16 12:28N 34°14' E 029°13'9 8.5
2015-May-16 11:27N 34°07' E 029°20'8 8.5
2015-May-16 10:33N 34°01' E 029°25'12 8.4
2015-May-16 09:04N 33°51' E 029°34'4 8.5
2015-May-16 08:33N 33°48' E 029°38'10 8.4
2015-May-16 07:20N 33°41' E 029°47'7 8.5
2015-May-16 06:33N 33°36' E 029°52'32 9.2
2015-May-16 03:03N 33°12' E 030°18'14 9.5
2015-May-16 01:33N 33°02' E 030°30'20 8.8
2015-May-15 23:15N 32°43' E 030°40'10 9.0
2015-May-15 22:11N 32°39' E 030°50'6 8.8
2015-May-15 21:30N 32°36' E 030°56'8 8.8
2015-May-15 20:33N 32°29' E 031°03'9 8.8
2015-May-15 19:33N 32°23' E 031°09'9 8.7
2015-May-15 18:33N 32°16' E 031°16'9 8.8
2015-May-15 17:28N 32°10' E 031°25'28 9.0
2015-May-15 14:22N 31°50' E 031°48'8 9.2
2015-May-15 13:32N 31°47' E 031°56'  
Track history (hours):
 
Tides and Currents Weather Stations Pressure Air Temp Water Temp Dewpoint Dewpoint Depression Visibility Wind Speed Wind Dir Waves Ship Positions

Estestar

Last reported at 2015-May-25 10:10 UTC. Time now 2015-May-28 08:08 UTC.
Position N 46°36' E 031°39'.

Length 133 m; draft 7.5 m.

Type: Cargo ship. MMSI: 371448000.

Date/timePositionNaut miles runAvg speedWind from/ knotsBaromVisibWave heightAir tempDewpointWater temp
2015-May-25 10:10N 46°36' E 031°39'6 7.8
2015-May-25 09:21N 46°36' E 031°48'5 6.4
2015-May-25 08:33N 46°34' E 031°55'7 6.9
2015-May-25 07:33N 46°32' E 032°05'9 7.8
2015-May-25 06:21N 46°33' E 032°18'  
2015-May-22 12:29N 46°33' E 032°16'9 9.5
2015-May-22 11:33N 46°32' E 032°03'10 9.8
2015-May-22 10:33N 46°35' E 031°50'12 9.3
2015-May-22 09:17N 46°35' E 031°32'30 6.2
2015-May-22 04:29N 46°17' E 030°58'10 9.2
2015-May-22 03:22N 46°10' E 031°07'7 8.7
2015-May-22 02:31N 46°02' E 031°08'  
2015-May-18 17:06N 39°36' E 025°48'109 8.0
2015-May-18 03:30N 37°47' E 025°53'9 9.1
2015-May-18 02:33N 37°38' E 025°53'9 8.8
2015-May-18 01:33N 37°29' E 025°53'9 8.5
2015-May-18 00:33N 37°24' E 026°01'9 8.6
2015-May-17 23:33N 37°20' E 026°11'18 8.9
2015-May-17 21:33N 37°08' E 026°28'9 9.2
2015-May-17 20:33N 37°03' E 026°37'9 8.7
2015-May-17 19:33N 36°55' E 026°42'9 9.3
2015-May-17 18:33N 36°46' E 026°45'17 8.6
2015-May-17 16:33N 36°29' E 026°49'8 8.4
2015-May-17 15:33N 36°21' E 026°53'29 8.9
2015-May-17 12:21N 36°01' E 027°17'7 9.1
2015-May-17 11:33N 35°55' E 027°23'19 9.3
2015-May-17 09:33N 35°40' E 027°37'2 2.2
2015-May-17 08:33N 35°39' E 027°40'0 0.2
2015-May-17 07:33N 35°39' E 027°40'0 0.3
2015-May-17 06:33N 35°39' E 027°40'0 0.2
2015-May-17 05:32N 35°39' E 027°40'24 5.9
2015-May-17 01:31N 35°21' E 027°60'34 6.8
2015-May-16 20:33N 34°58' E 028°30'39 6.4
2015-May-16 14:28N 34°29' E 029°01'8 9.2
2015-May-16 13:32N 34°22' E 029°07'10 9.0
2015-May-16 12:28N 34°14' E 029°13'9 8.5
2015-May-16 11:27N 34°07' E 029°20'8 8.5
2015-May-16 10:33N 34°01' E 029°25'12 8.4
2015-May-16 09:04N 33°51' E 029°34'4 8.5
2015-May-16 08:33N 33°48' E 029°38'10 8.4
2015-May-16 07:20N 33°41' E 029°47'7 8.5
2015-May-16 06:33N 33°36' E 029°52'32 9.2
2015-May-16 03:03N 33°12' E 030°18'14 9.5
2015-May-16 01:33N 33°02' E 030°30'20 8.8
2015-May-15 23:15N 32°43' E 030°40'10 9.0
2015-May-15 22:11N 32°39' E 030°50'6 8.8
2015-May-15 21:30N 32°36' E 030°56'8 8.8
2015-May-15 20:33N 32°29' E 031°03'9 8.8
2015-May-15 19:33N 32°23' E 031°09'9 8.7
2015-May-15 18:33N 32°16' E 031°16'9 8.8
2015-May-15 17:28N 32°10' E 031°25'28 9.0
2015-May-15 14:22N 31°50' E 031°48'8 9.2
2015-May-15 13:32N 31°47' E 031°56'  

Dump ship's entire track history